Time;durP1;ratioP1;P1;durP2;ratioP2;P2;SDS_P1;SDS_P2;PMS_P1;PMS_P2;Temp;Humidity;BMP_temperature;BMP_pressure;BME280_temperature;BME280_humidity;BME280_pressure;Samples;Min_cycle;Max_cycle;Signal;HPM_P1;HPM_P2
2023/12/05 00:00:33;;;;;;;29.55;14.40;;;;;;;1.56;81.72;95604.31;5096711;28;20060;-88
2023/12/05 00:02:59;;;;;;;29.75;14.23;;;;;;;2.01;81.82;95659.25;5061307;28;20055;-88
2023/12/05 00:05:24;;;;;;;31.02;14.65;;;;;;;1.31;81.83;95544.06;5085988;28;20046;-86
2023/12/05 00:07:50;;;;;;;30.30;13.98;;;;;;;1.29;81.43;95540.91;5073208;28;20032;-86
2023/12/05 00:10:15;;;;;;;32.22;13.68;;;;;;;1.07;81.63;95508.19;5060820;28;20028;-86
2023/12/05 00:12:41;;;;;;;34.28;14.82;;;;;;;1.92;81.55;95619.44;5070883;28;20455;-86
2023/12/05 00:15:07;;;;;;;32.22;13.98;;;;;;;1.58;80.93;95560.47;5070376;28;20032;-85
2023/12/05 00:17:33;;;;;;;30.65;15.07;;;;;;;1.77;81.65;95597.97;5079776;28;20036;-86
2023/12/05 00:19:58;;;;;;;32.33;14.38;;;;;;;2.24;81.58;95665.56;5093214;28;20035;-86
2023/12/05 00:22:27;;;;;;;24.23;12.70;;;;;;;2.40;80.56;95687.03;5097974;28;20563;-87
2023/12/05 00:24:52;;;;;;;22.73;12.52;;;;;;;1.84;80.51;95593.53;5082401;28;20031;-86
2023/12/05 00:27:18;;;;;;;25.10;12.65;;;;;;;1.49;80.31;95531.16;5100176;28;20061;-86
2023/12/05 00:29:43;;;;;;;26.70;12.48;;;;;;;2.49;80.70;95696.25;5063966;28;20032;-89
2023/12/05 00:32:09;;;;;;;20.52;11.73;;;;;;;0.73;80.05;95418.72;5083673;28;20035;-86
2023/12/05 00:34:34;;;;;;;21.50;10.43;;;;;;;2.25;80.19;95661.13;5096216;28;20027;-85
2023/12/05 00:37:00;;;;;;;19.30;10.38;;;;;;;2.08;80.67;95636.47;5097231;28;20028;-86
2023/12/05 00:39:25;;;;;;;17.10;10.27;;;;;;;1.47;80.31;95541.00;5113347;28;20112;-86
2023/12/05 00:41:51;;;;;;;17.77;9.38;;;;;;;2.37;80.95;95696.09;5101469;28;20108;-86
2023/12/05 00:44:17;;;;;;;18.25;9.25;;;;;;;1.41;80.48;95549.69;5094745;28;20024;-86
2023/12/05 00:46:42;;;;;;;15.98;9.13;;;;;;;1.74;80.03;95586.16;5054316;28;20063;-86
2023/12/05 00:49:08;;;;;;;16.65;8.88;;;;;;;2.41;79.71;95672.94;5042316;28;20044;-86
2023/12/05 00:51:34;;;;;;;18.77;9.02;;;;;;;2.17;79.57;95643.06;5042086;28;20025;-87
2023/12/05 00:53:59;;;;;;;17.75;8.70;;;;;;;2.65;80.00;95690.50;5042257;28;20024;-86
2023/12/05 00:56:25;;;;;;;16.40;9.13;;;;;;;2.18;79.39;95601.00;5041849;28;20040;-87
2023/12/05 00:58:51;;;;;;;13.07;7.95;;;;;;;1.63;78.60;95516.19;5058024;28;20395;-87
2023/12/05 01:01:18;;;;;;;17.20;8.55;;;;;;;2.44;78.34;95664.66;5056852;28;20025;-85
2023/12/05 01:03:44;;;;;;;13.98;8.43;;;;;;;2.26;77.74;95644.44;5063512;28;20048;-87
2023/12/05 01:06:09;;;;;;;14.63;8.00;;;;;;;2.26;77.80;95628.72;5021264;28;20079;-83
2023/12/05 01:08:35;;;;;;;14.55;8.52;;;;;;;1.88;76.92;95576.41;5037492;28;20029;-82
2023/12/05 01:11:00;;;;;;;12.73;8.05;;;;;;;2.28;76.69;95631.94;5073870;28;20059;-82
2023/12/05 01:13:26;;;;;;;17.17;7.45;;;;;;;2.06;75.95;95584.34;5040127;28;20040;-83
2023/12/05 01:15:52;;;;;;;13.68;8.13;;;;;;;2.23;76.05;95616.06;5036575;28;20033;-82
2023/12/05 01:18:17;;;;;;;12.77;7.90;;;;;;;2.07;75.89;95601.66;5074239;28;20098;-83
2023/12/05 01:20:43;;;;;;;18.70;7.82;;;;;;;2.02;75.43;95579.75;5054900;28;20430;-83
2023/12/05 01:23:08;;;;;;;17.48;8.63;;;;;;;1.99;74.92;95625.44;5040624;28;20121;-82
2023/12/05 01:25:34;;;;;;;13.48;7.22;;;;;;;1.94;74.61;95586.84;5057262;28;20552;-82
2023/12/05 01:27:59;;;;;;;10.75;7.35;;;;;;;1.36;74.24;95507.69;5057261;28;20041;-83
2023/12/05 01:30:25;;;;;;;15.57;7.03;;;;;;;2.02;73.46;95598.88;5039093;28;20036;-83
2023/12/05 01:32:50;;;;;;;16.85;7.60;;;;;;;0.44;73.44;95354.00;5039361;28;20446;-82
2023/12/05 01:35:16;;;;;;;16.60;7.07;;;;;;;1.18;73.58;95470.97;5040204;28;20044;-81
2023/12/05 01:37:42;;;;;;;12.45;5.78;;;;;;;2.23;73.58;95637.78;5054647;28;20100;-82
2023/12/05 01:40:09;;;;;;;11.88;6.32;;;;;;;0.37;73.25;95346.19;5045557;28;20044;-83
2023/12/05 01:42:38;;;;;;;13.40;6.35;;;;;;;-0.14;72.62;95270.50;5059807;28;20100;-82
2023/12/05 01:45:08;;;;;;;11.57;6.28;;;;;;;2.12;73.23;95599.22;5045557;28;20060;-83
2023/12/05 01:47:39;;;;;;;12.85;6.80;;;;;;;2.14;73.20;95612.88;5098552;28;20502;-83
2023/12/05 01:50:11;;;;;;;24.02;6.88;;;;;;;1.75;73.00;95545.91;5062670;28;20059;-82
2023/12/05 01:52:44;;;;;;;14.32;7.30;;;;;;;-0.21;72.73;95220.19;5079637;28;20098;-82
2023/12/05 01:55:10;;;;;;;14.73;7.20;;;;;;;2.13;73.37;95607.88;5059174;28;20032;-82
2023/12/05 01:57:36;;;;;;;12.50;6.35;;;;;;;1.35;72.98;95477.34;5059694;28;20123;-82
2023/12/05 02:00:04;;;;;;;11.30;6.63;;;;;;;2.22;73.17;95590.88;5059379;28;20047;-82
2023/12/05 02:02:30;;;;;;;12.95;7.80;;;;;;;2.13;72.37;95592.97;5057207;28;20044;-84
2023/12/05 02:04:56;;;;;;;9.63;6.13;;;;;;;1.66;72.93;95525.44;5070200;28;20055;-83
2023/12/05 02:07:23;;;;;;;15.77;7.03;;;;;;;1.89;72.61;95538.78;5072521;28;20063;-82
2023/12/05 02:09:48;;;;;;;12.35;7.07;;;;;;;2.19;72.30;95580.84;5078653;28;20032;-83
2023/12/05 02:12:14;;;;;;;14.10;6.07;;;;;;;1.94;72.12;95542.38;5062495;28;20029;-83
2023/12/05 02:14:42;;;;;;;13.43;6.95;;;;;;;2.19;72.50;95592.13;5078156;28;20102;-82
2023/12/05 02:17:32;;;;;;;9.75;5.95;;;;;;;0.83;72.11;95360.88;5096330;28;20051;-83
2023/12/05 02:20:07;;;;;;;11.30;6.28;;;;;;;1.63;72.14;95504.94;5097969;28;20051;-83
2023/12/05 02:22:59;;;;;;;11.65;6.72;;;;;;;1.66;72.89;95515.78;5078590;28;20040;-82
2023/12/05 02:25:53;;;;;;;;;;;;;;;2.35;72.15;95606.53;5085801;28;20119;-84
2023/12/05 02:28:19;;;;;;;12.35;6.90;;;;;;;2.32;72.33;95581.56;5081957;28;19916;-82
2023/12/05 02:30:45;;;;;;;15.00;7.47;;;;;;;-0.12;72.41;95239.00;5077015;28;20052;-82
2023/12/05 02:33:10;;;;;;;13.98;7.93;;;;;;;2.06;73.10;95583.56;5060492;28;20029;-83
2023/12/05 02:35:37;;;;;;;13.85;6.90;;;;;;;0.08;72.71;95270.25;5098632;28;20039;-82
2023/12/05 02:38:29;;;;;;;16.88;7.55;;;;;;;0.89;72.82;95367.06;5076300;28;20036;-82
2023/12/05 02:41:07;;;;;;;15.48;6.95;;;;;;;2.11;72.72;95555.75;5058827;28;20247;-83
2023/12/05 02:43:40;;;;;;;14.88;6.80;;;;;;;1.11;72.30;95387.44;5059066;28;20130;-81
2023/12/05 02:46:08;;;;;;;11.40;6.75;;;;;;;1.35;72.51;95430.31;5072057;28;20055;-82
2023/12/05 02:48:36;;;;;;;15.35;7.35;;;;;;;1.49;73.02;95444.09;5078461;28;20502;-83
2023/12/05 02:51:02;;;;;;;14.00;7.20;;;;;;;1.96;72.47;95507.34;5059172;28;20033;-82
2023/12/05 02:53:28;;;;;;;13.48;6.82;;;;;;;1.37;72.69;95406.59;5059234;28;20033;-83
2023/12/05 02:55:53;;;;;;;15.95;6.78;;;;;;;1.44;73.22;95441.31;5072117;28;20059;-83
2023/12/05 02:58:19;;;;;;;13.93;7.80;;;;;;;1.66;73.17;95479.19;5054733;28;20499;-82
2023/12/05 03:00:44;;;;;;;11.60;7.45;;;;;;;2.04;73.40;95541.13;5093036;28;20041;-82
2023/12/05 03:03:10;;;;;;;17.75;7.65;;;;;;;0.37;73.48;95295.81;5075056;28;20082;-83
2023/12/05 03:05:36;;;;;;;13.25;7.40;;;;;;;0.82;73.45;95364.47;5075767;28;20363;-82
2023/12/05 03:08:01;;;;;;;13.10;6.28;;;;;;;1.55;72.78;95459.72;5062224;28;20024;-82
2023/12/05 03:10:27;;;;;;;16.80;7.85;;;;;;;1.79;72.69;95483.53;5072187;28;20477;-82
2023/12/05 03:12:52;;;;;;;17.63;7.43;;;;;;;1.92;72.71;95514.81;5058780;28;20024;-83
2023/12/05 03:15:17;;;;;;;15.07;7.47;;;;;;;1.52;72.00;95444.50;5085535;28;20104;-83
2023/12/05 03:17:43;;;;;;;19.92;7.15;;;;;;;1.88;72.29;95485.69;5066205;28;20028;-82
2023/12/05 03:20:09;;;;;;;14.45;7.43;;;;;;;1.44;72.13;95442.13;5068741;28;20028;-82
2023/12/05 03:22:35;;;;;;;12.77;6.88;;;;;;;2.42;71.41;95554.94;5075768;28;20104;-82
2023/12/05 03:25:00;;;;;;;13.50;6.95;;;;;;;2.02;71.44;95482.97;5091405;28;20363;-85
2023/12/05 03:27:26;;;;;;;19.42;7.65;;;;;;;2.03;71.12;95476.72;5085262;28;20062;-85
2023/12/05 03:29:52;;;;;;;10.95;6.88;;;;;;;1.16;72.09;95365.88;5085430;28;20047;-84
2023/12/05 03:32:17;;;;;;;9.63;6.05;;;;;;;0.73;71.59;95293.44;5084836;28;20119;-85
2023/12/05 03:34:43;;;;;;;14.32;7.30;;;;;;;1.39;71.28;95399.31;5085110;28;20047;-86
2023/12/05 03:37:08;;;;;;;12.43;6.32;;;;;;;1.16;71.69;95389.41;5087222;28;20040;-84
2023/12/05 03:39:34;;;;;;;12.60;7.28;;;;;;;1.81;71.16;95489.34;5088908;28;20092;-85
2023/12/05 03:41:59;;;;;;;15.43;6.35;;;;;;;1.55;71.24;95430.97;5091221;28;20038;-85
2023/12/05 03:44:25;;;;;;;14.20;7.57;;;;;;;1.07;70.95;95341.03;5089089;28;20032;-85
2023/12/05 03:46:50;;;;;;;10.55;7.20;;;;;;;1.80;71.24;95470.25;5072669;28;20049;-85
2023/12/05 03:49:16;;;;;;;12.38;6.93;;;;;;;0.31;70.50;95224.38;5062885;28;20037;-85
2023/12/05 03:51:41;;;;;;;13.43;7.10;;;;;;;2.18;71.29;95543.44;5067654;28;20102;-85
2023/12/05 03:54:07;;;;;;;15.88;7.30;;;;;;;2.32;71.22;95547.53;5076998;28;20461;-85
2023/12/05 03:56:33;;;;;;;18.50;7.20;;;;;;;1.08;70.54;95334.78;5065615;28;20051;-85
2023/12/05 03:58:59;;;;;;;15.00;8.75;;;;;;;1.15;70.33;95356.44;5064151;28;20048;-84
2023/12/05 04:01:24;;;;;;;17.05;8.38;;;;;;;2.02;70.36;95486.38;5060627;28;20037;-85
2023/12/05 04:03:50;;;;;;;13.35;8.02;;;;;;;1.10;70.98;95338.81;5063747;28;20040;-84
2023/12/05 04:06:20;;;;;;;15.88;8.13;;;;;;;2.33;70.58;95543.91;5064336;28;20128;-84
2023/12/05 04:08:47;;;;;;;13.57;6.97;;;;;;;1.67;71.27;95470.34;5041204;28;20059;-84
2023/12/05 04:11:12;;;;;;;13.07;7.55;;;;;;;2.29;70.81;95544.53;5058635;28;20029;-84
2023/12/05 04:13:38;;;;;;;14.93;7.57;;;;;;;1.42;71.17;95420.63;5077442;28;20098;-85
2023/12/05 04:16:05;;;;;;;15.60;7.75;;;;;;;1.62;71.11;95445.81;5059677;28;20037;-85
2023/12/05 04:18:31;;;;;;;13.80;6.75;;;;;;;0.98;70.89;95324.03;5058813;28;20052;-85
2023/12/05 04:20:56;;;;;;;14.52;7.10;;;;;;;1.60;71.45;95443.44;5054660;28;20198;-85
2023/12/05 04:23:22;;;;;;;12.93;7.70;;;;;;;2.06;71.61;95497.22;5072524;28;20147;-86
2023/12/05 04:25:47;;;;;;;13.00;8.00;;;;;;;2.36;71.48;95540.09;5058862;28;20036;-84
2023/12/05 04:28:13;;;;;;;17.65;8.35;;;;;;;2.43;71.18;95534.78;5063581;28;20040;-85
2023/12/05 04:30:39;;;;;;;15.38;7.95;;;;;;;1.91;70.83;95446.00;5051407;28;20057;-84
2023/12/05 04:33:04;;;;;;;13.13;7.38;;;;;;;2.00;70.83;95459.63;5061147;28;20055;-84
2023/12/05 04:35:30;;;;;;;14.52;8.05;;;;;;;1.30;70.87;95350.97;5081823;28;20108;-84
2023/12/05 04:37:55;;;;;;;15.60;8.98;;;;;;;2.21;71.10;95489.88;5052218;28;20057;-85
2023/12/05 04:40:21;;;;;;;15.25;8.38;;;;;;;1.68;70.87;95414.38;5044535;28;20070;-85
2023/12/05 04:42:46;;;;;;;16.60;7.80;;;;;;;2.35;71.12;95522.78;5057487;28;20044;-84
2023/12/05 04:45:12;;;;;;;13.60;7.60;;;;;;;2.14;70.97;95489.09;5059754;28;20710;-84
2023/12/05 04:47:37;;;;;;;14.95;8.15;;;;;;;1.88;70.77;95427.34;5077296;28;20060;-85
2023/12/05 04:50:03;;;;;;;18.23;8.43;;;;;;;1.40;70.55;95343.44;5079596;28;20097;-85
2023/12/05 04:52:29;;;;;;;18.60;9.15;;;;;;;2.34;70.65;95500.22;5078836;28;20116;-86
2023/12/05 04:54:54;;;;;;;15.50;7.50;;;;;;;2.23;70.59;95491.25;5080751;28;20035;-85
2023/12/05 04:57:20;;;;;;;12.57;7.65;;;;;;;1.74;70.35;95400.50;5077892;28;20044;-85
2023/12/05 04:59:45;;;;;;;13.60;7.65;;;;;;;1.99;70.34;95447.56;5060589;28;20039;-84
2023/12/05 05:02:11;;;;;;;18.02;8.23;;;;;;;1.41;70.12;95345.84;5060539;28;20036;-85
2023/12/05 05:04:38;;;;;;;15.27;8.32;;;;;;;2.57;70.33;95523.19;5079143;28;20086;-85
2023/12/05 05:07:04;;;;;;;18.58;8.43;;;;;;;2.71;70.08;95540.38;5073221;28;20032;-84
2023/12/05 05:09:30;;;;;;;16.23;7.68;;;;;;;2.47;70.51;95501.91;5066300;28;20036;-85
2023/12/05 05:11:56;;;;;;;16.55;7.53;;;;;;;2.09;69.86;95474.03;5069776;28;20428;-85
2023/12/05 05:14:22;;;;;;;15.57;7.32;;;;;;;1.79;70.43;95433.84;5060338;28;20040;-86
2023/12/05 05:16:47;;;;;;;15.73;8.02;;;;;;;0.51;69.98;95207.84;5062147;28;20041;-85
2023/12/05 05:19:13;;;;;;;14.93;7.65;;;;;;;2.64;70.14;95544.88;5058430;28;20032;-85
2023/12/05 05:21:38;;;;;;;18.48;8.55;;;;;;;2.67;70.21;95547.06;5058664;28;20146;-86
2023/12/05 05:24:04;;;;;;;14.52;8.30;;;;;;;1.14;69.85;95349.66;5077003;28;20052;-86
2023/12/05 05:26:31;;;;;;;20.88;10.70;;;;;;;1.59;69.92;95409.66;5074081;28;20099;-87
2023/12/05 05:28:57;;;;;;;16.63;8.82;;;;;;;0.02;70.17;95182.41;5068012;28;20037;-87
2023/12/05 05:31:22;;;;;;;22.17;11.10;;;;;;;2.28;69.94;95499.28;5054489;28;20085;-87
2023/12/05 05:33:48;;;;;;;31.50;9.88;;;;;;;1.56;70.32;95392.56;5052978;28;20120;-86
2023/12/05 05:36:14;;;;;;;27.00;9.75;;;;;;;2.12;70.38;95481.47;5074962;28;20033;-86
2023/12/05 05:38:40;;;;;;;26.95;11.20;;;;;;;1.96;70.62;95463.69;5056131;28;20601;-87
2023/12/05 05:41:06;;;;;;;22.90;11.13;;;;;;;2.57;70.62;95541.50;5079872;28;20036;-86
2023/12/05 05:43:32;;;;;;;23.63;9.88;;;;;;;1.73;70.08;95424.22;5071284;28;20040;-87
2023/12/05 05:45:58;;;;;;;28.33;10.57;;;;;;;1.76;70.55;95413.34;5071361;28;20056;-87
2023/12/05 05:48:24;;;;;;;24.02;10.27;;;;;;;2.03;70.65;95456.59;5079650;28;20043;-87
2023/12/05 05:50:50;;;;;;;23.08;10.52;;;;;;;2.46;70.91;95521.25;5077719;28;20040;-87
2023/12/05 05:53:16;;;;;;;22.83;10.48;;;;;;;2.08;70.57;95471.63;5043354;28;20025;-87
2023/12/05 05:55:41;;;;;;;19.02;10.68;;;;;;;2.60;70.81;95541.88;5049160;28;20040;-87
2023/12/05 05:58:11;;;;;;;21.08;9.88;;;;;;;-0.24;70.62;95105.16;5053949;28;20033;-88
2023/12/05 06:00:36;;;;;;;21.33;10.90;;;;;;;2.02;70.47;95470.69;5077012;28;20052;-86
2023/12/05 06:03:03;;;;;;;18.63;9.63;;;;;;;1.80;71.32;95423.16;5050028;28;20450;-87
2023/12/05 06:05:33;;;;;;;29.50;12.98;;;;;;;-0.15;71.79;95128.13;5059056;28;20047;-86
2023/12/05 06:07:59;;;;;;;30.92;11.73;;;;;;;2.12;72.18;95478.06;5089459;22;20129;-80
2023/12/05 06:10:25;;;;;;;26.48;12.65;;;;;;;1.93;72.25;95438.75;5065863;28;20496;-79
2023/12/05 06:12:50;;;;;;;23.92;12.68;;;;;;;2.07;71.88;95446.50;5063497;28;20074;-80
2023/12/05 06:15:16;;;;;;;26.73;12.50;;;;;;;2.26;72.00;95471.72;5054255;28;20141;-81
2023/12/05 06:17:41;;;;;;;23.45;11.52;;;;;;;2.54;71.41;95503.47;5077235;28;20119;-79
2023/12/05 06:20:08;;;;;;;21.88;11.95;;;;;;;1.62;71.35;95365.56;5077319;28;20285;-79
2023/12/05 06:22:34;;;;;;;24.60;10.93;;;;;;;2.22;71.09;95453.00;5056173;28;20035;-79
2023/12/05 06:24:59;;;;;;;21.92;11.82;;;;;;;2.30;71.29;95447.50;5031013;28;20039;-80
2023/12/05 06:27:25;;;;;;;22.27;11.93;;;;;;;2.44;71.27;95463.88;5046559;28;20115;-80
2023/12/05 06:29:50;;;;;;;25.75;14.00;;;;;;;2.54;71.12;95493.00;5033036;28;20279;-80
2023/12/05 06:32:16;;;;;;;26.10;13.00;;;;;;;2.60;70.89;95507.03;5044794;28;20107;-80
2023/12/05 06:34:41;;;;;;;27.92;13.65;;;;;;;2.43;70.65;95480.63;5079073;28;20028;-80
2023/12/05 06:37:08;;;;;;;30.10;14.57;;;;;;;2.15;70.58;95427.91;5080987;28;20031;-78
2023/12/05 06:39:34;;;;;;;34.90;14.55;;;;;;;2.29;71.15;95484.34;5092748;27;20405;-79
2023/12/05 06:42:00;;;;;;;37.85;13.18;;;;;;;2.14;71.08;95457.69;5096971;28;20406;-80
2023/12/05 06:44:25;;;;;;;34.13;12.20;;;;;;;2.28;70.85;95464.44;5100340;28;20028;-79
2023/12/05 06:46:51;;;;;;;29.15;12.50;;;;;;;2.45;71.30;95491.66;5078356;28;20457;-79
2023/12/05 06:49:16;;;;;;;27.73;12.93;;;;;;;2.53;71.28;95504.47;5091518;28;20032;-80
2023/12/05 06:51:42;;;;;;;27.23;12.95;;;;;;;2.60;70.77;95493.94;5088135;28;20114;-79
2023/12/05 06:54:07;;;;;;;32.53;13.77;;;;;;;2.60;71.42;95491.31;5116277;28;20039;-79
2023/12/05 06:56:33;;;;;;;27.65;13.40;;;;;;;2.61;71.00;95485.88;5098127;28;20015;-79
2023/12/05 06:59:00;;;;;;;23.35;12.13;;;;;;;2.53;70.54;95454.72;5120012;28;20036;-79
2023/12/05 07:01:27;;;;;;;37.95;16.02;;;;;;;2.76;70.75;95498.63;5088789;28;20063;-79
2023/12/05 07:03:52;;;;;;;42.72;15.40;;;;;;;2.37;70.84;95430.94;5088124;28;20032;-80
2023/12/05 07:06:18;;;;;;;42.03;15.95;;;;;;;2.74;70.45;95465.81;5087198;28;20024;-81
2023/12/05 07:08:44;;;;;;;48.25;15.50;;;;;;;2.64;70.47;95433.09;5091909;28;20052;-79
2023/12/05 07:11:10;;;;;;;34.70;14.10;;;;;;;2.91;70.27;95469.44;5105706;28;20027;-79
2023/12/05 07:13:35;;;;;;;27.65;13.30;;;;;;;2.90;70.91;95462.63;5062640;28;20394;-80
2023/12/05 07:16:01;;;;;;;26.25;12.88;;;;;;;2.90;70.86;95460.78;5076805;28;20056;-79
2023/12/05 07:18:26;;;;;;;31.90;12.55;;;;;;;2.95;70.67;95449.66;5063543;28;20028;-80
2023/12/05 07:20:52;;;;;;;35.63;14.20;;;;;;;3.02;70.66;95442.53;5090932;28;20255;-79
2023/12/05 07:23:17;;;;;;;28.48;14.10;;;;;;;3.10;70.63;95464.00;5108231;28;20346;-79
2023/12/05 07:25:43;;;;;;;25.85;12.55;;;;;;;2.94;70.77;95440.22;5099045;28;20085;-80
2023/12/05 07:28:09;;;;;;;39.42;13.13;;;;;;;3.03;71.28;95455.41;5114208;27;20203;-79
2023/12/05 07:30:34;;;;;;;33.50;13.13;;;;;;;2.97;71.30;95432.72;5071279;28;20063;-80
2023/12/05 07:33:00;;;;;;;47.65;13.18;;;;;;;3.02;70.68;95426.81;5078091;28;20063;-79
2023/12/05 07:35:25;;;;;;;27.75;13.55;;;;;;;3.27;71.41;95466.03;5048396;28;20031;-79
2023/12/05 07:37:51;;;;;;;30.30;12.73;;;;;;;3.20;71.23;95437.28;5060910;28;20062;-79
2023/12/05 07:40:17;;;;;;;29.63;14.52;;;;;;;3.25;70.57;95428.75;5052861;27;20786;-79
2023/12/05 07:42:44;;;;;;;25.73;14.70;;;;;;;3.01;70.34;95375.44;5042366;28;20035;-79
2023/12/05 07:45:10;;;;;;;33.38;15.75;;;;;;;3.11;69.80;95396.66;5085086;28;20032;-79
2023/12/05 07:47:35;;;;;;;29.42;14.18;;;;;;;3.56;69.98;95467.06;5094109;28;20032;-79
2023/12/05 07:50:01;;;;;;;34.00;13.85;;;;;;;3.25;70.12;95429.53;5086630;28;20121;-80
2023/12/05 07:52:26;;;;;;;35.53;14.18;;;;;;;3.58;70.07;95472.88;5083266;28;20039;-79
2023/12/05 07:54:52;;;;;;;39.70;15.20;;;;;;;3.67;70.01;95471.53;5058348;28;20408;-81
2023/12/05 07:57:22;;;;;;;31.10;13.82;;;;;;;3.63;70.45;95468.56;5091579;28;20100;-80
2023/12/05 07:59:50;;;;;;;39.30;14.50;;;;;;;3.50;69.83;95442.53;5073788;28;20055;-81
2023/12/05 08:02:18;;;;;;;31.80;13.00;;;;;;;3.68;69.79;95481.00;5079237;28;20053;-81
2023/12/05 08:04:43;;;;;;;33.30;13.02;;;;;;;3.68;69.76;95481.81;5081468;28;20040;-81
2023/12/05 08:07:09;;;;;;;42.63;13.13;;;;;;;3.38;70.00;95460.03;5079538;28;20043;-81
2023/12/05 08:09:34;;;;;;;32.30;12.45;;;;;;;3.56;70.18;95474.94;5081553;28;20032;-80
2023/12/05 08:12:00;;;;;;;37.63;14.40;;;;;;;3.57;70.03;95490.44;5062472;28;20053;-81
2023/12/05 08:14:26;;;;;;;24.50;13.55;;;;;;;3.23;70.19;95400.13;5040647;28;20119;-80
2023/12/05 08:16:52;;;;;;;30.67;13.02;;;;;;;3.66;70.80;95477.81;5068055;28;20051;-80
2023/12/05 08:19:17;;;;;;;28.33;12.75;;;;;;;3.34;71.27;95458.88;5061068;28;20295;-81
2023/12/05 08:21:44;;;;;;;30.83;12.43;;;;;;;3.28;70.68;95442.19;5065671;28;20027;-80
2023/12/05 08:24:09;;;;;;;27.70;13.13;;;;;;;3.45;71.36;95456.28;5087720;27;20028;-80
2023/12/05 08:26:35;;;;;;;28.65;12.40;;;;;;;3.70;70.95;95453.53;5084907;27;20039;-80
2023/12/05 08:29:01;;;;;;;22.08;9.43;;;;;;;3.47;71.19;95414.94;5072804;28;20032;-80
2023/12/05 08:31:27;;;;;;;31.65;11.18;;;;;;;3.78;71.16;95470.78;5081129;28;20081;-80
2023/12/05 08:33:52;;;;;;;28.58;11.90;;;;;;;3.49;71.04;95409.47;5086612;28;20402;-80
2023/12/05 08:36:18;;;;;;;29.80;11.98;;;;;;;3.62;71.32;95419.75;5082374;28;20040;-80
2023/12/05 08:38:44;;;;;;;22.40;10.10;;;;;;;3.42;70.92;95379.91;5077764;28;20035;-80
2023/12/05 08:41:16;;;;;;;27.45;11.30;;;;;;;3.80;70.75;95445.94;5083797;28;20043;-80
2023/12/05 08:43:42;;;;;;;24.10;10.50;;;;;;;4.00;70.49;95450.06;5066429;28;20431;-80
2023/12/05 08:46:07;;;;;;;25.58;10.98;;;;;;;3.90;70.94;95434.88;5081035;28;20355;-80
2023/12/05 08:48:33;;;;;;;26.30;9.60;;;;;;;4.22;70.40;95466.88;5083537;28;20035;-80
2023/12/05 08:50:58;;;;;;;19.92;9.93;;;;;;;4.10;70.16;95458.19;5066508;28;20035;-80
2023/12/05 08:53:24;;;;;;;22.08;9.90;;;;;;;4.06;70.03;95465.72;5094016;28;20441;-79
2023/12/05 08:55:49;;;;;;;35.42;10.77;;;;;;;3.46;70.13;95333.88;5074503;28;20089;-81
2023/12/05 08:58:15;;;;;;;28.88;10.43;;;;;;;4.32;70.37;95438.25;5072194;28;20100;-80
2023/12/05 09:00:41;;;;;;;25.15;12.35;;;;;;;4.44;70.30;95452.16;5070083;28;20111;-79
2023/12/05 09:03:06;;;;;;;28.33;11.38;;;;;;;4.02;69.92;95364.06;5026461;28;20070;-79
2023/12/05 09:05:32;;;;;;;25.80;11.48;;;;;;;4.31;70.70;95404.34;5056724;28;20035;-78
2023/12/05 09:07:57;;;;;;;29.08;13.05;;;;;;;4.73;69.88;95428.66;5078923;28;20552;-79
2023/12/05 09:10:23;;;;;;;31.90;13.65;;;;;;;4.50;69.76;95385.59;5089989;28;20036;-77
2023/12/05 09:12:48;;;;;;;25.38;12.07;;;;;;;4.92;69.41;95427.47;5103942;28;20059;-80
2023/12/05 09:15:14;;;;;;;24.27;11.60;;;;;;;5.01;69.11;95426.88;5073548;28;20030;-80
2023/12/05 09:17:39;;;;;;;22.50;10.88;;;;;;;4.86;68.67;95396.84;5099346;28;20035;-78
2023/12/05 09:20:05;;;;;;;26.70;11.07;;;;;;;5.03;68.18;95393.25;5093903;28;20038;-78
2023/12/05 09:22:31;;;;;;;29.08;10.38;;;;;;;5.10;68.14;95401.03;5098956;28;20398;-78
2023/12/05 09:24:56;;;;;;;21.35;9.50;;;;;;;5.02;68.07;95391.69;5077629;28;20706;-77
2023/12/05 09:27:22;;;;;;;22.70;11.05;;;;;;;5.11;67.55;95378.94;5100576;28;20031;-79
2023/12/05 09:29:47;;;;;;;26.25;10.45;;;;;;;5.09;67.12;95381.03;5084387;28;20501;-79
2023/12/05 09:32:13;;;;;;;24.00;9.60;;;;;;;5.09;67.36;95370.50;5110392;28;20028;-79
2023/12/05 09:34:38;;;;;;;27.00;11.40;;;;;;;4.84;67.08;95314.81;5092126;28;20076;-79
2023/12/05 09:37:04;;;;;;;22.20;11.43;;;;;;;5.15;68.30;95377.44;5084847;28;20057;-79
2023/12/05 09:39:31;;;;;;;33.47;11.00;;;;;;;5.01;67.55;95334.06;5080332;28;20035;-77
2023/12/05 09:42:02;;;;;;;21.13;10.98;;;;;;;5.25;68.27;95380.28;5091374;28;20044;-78
2023/12/05 09:44:31;;;;;;;22.10;9.95;;;;;;;4.93;67.25;95326.56;5081850;28;20217;-79
2023/12/05 09:46:58;;;;;;;21.85;10.65;;;;;;;4.82;67.72;95307.16;5080519;28;20145;-78
2023/12/05 09:49:27;;;;;;;27.48;11.20;;;;;;;4.93;67.43;95326.56;5109428;27;20130;-78
2023/12/05 09:51:57;;;;;;;23.02;10.80;;;;;;;3.99;67.48;95199.97;5034411;22;20069;-81
2023/12/05 09:54:27;;;;;;;27.50;10.18;;;;;;;5.15;67.50;95368.75;4996228;28;20076;-81
2023/12/05 09:56:58;;;;;;;23.13;10.93;;;;;;;4.80;67.76;95276.91;5020418;28;20351;-81
2023/12/05 09:59:23;;;;;;;28.92;11.60;;;;;;;5.23;66.95;95311.34;5017744;28;20497;-81
2023/12/05 10:01:58;;;;;;;26.23;11.90;;;;;;;5.25;66.52;95297.97;5016536;28;20041;-81
2023/12/05 10:04:27;;;;;;;30.00;12.38;;;;;;;5.26;66.73;95295.09;4998819;28;20037;-81
2023/12/05 10:06:56;;;;;;;30.60;10.95;;;;;;;5.57;66.48;95333.22;5022126;28;20037;-81
2023/12/05 10:09:23;;;;;;;20.00;10.68;;;;;;;5.38;66.31;95274.00;5020191;28;20091;-81
2023/12/05 10:11:49;;;;;;;21.50;10.50;;;;;;;5.57;65.96;95287.72;5024912;28;20029;-81
2023/12/05 10:14:15;;;;;;;20.88;10.45;;;;;;;5.31;65.35;95241.78;5024453;28;20049;-81
2023/12/05 10:16:42;;;;;;;23.52;9.88;;;;;;;5.61;65.71;95273.84;5047035;28;20037;-81
2023/12/05 10:19:09;;;;;;;18.00;8.95;;;;;;;5.49;65.64;95240.75;5005726;28;20069;-81
2023/12/05 10:21:36;;;;;;;20.30;9.32;;;;;;;5.77;65.90;95304.63;5026911;28;20048;-81
2023/12/05 10:24:02;;;;;;;23.20;9.57;;;;;;;5.78;65.36;95292.25;5017600;28;20093;-81
2023/12/05 10:26:28;;;;;;;36.42;11.73;;;;;;;5.86;65.67;95288.41;5017683;28;20064;-80
2023/12/05 10:28:57;;;;;;;17.20;8.27;;;;;;;5.96;66.37;95299.91;5015388;28;20033;-82
2023/12/05 10:31:23;;;;;;;18.77;9.23;;;;;;;5.83;66.02;95253.63;5012008;28;20042;-81
2023/12/05 10:33:49;;;;;;;19.15;7.55;;;;;;;6.22;66.50;95284.47;5136772;22;20045;-88
2023/12/05 10:36:16;;;;;;;17.40;7.00;;;;;;;6.30;66.45;95271.69;5038564;28;20041;-86
2023/12/05 10:38:45;;;;;;;17.42;7.28;;;;;;;5.38;66.26;95121.44;5003338;28;20033;-87
2023/12/05 10:41:12;;;;;;;14.98;7.07;;;;;;;6.12;66.75;95238.53;5032125;28;20341;-87
2023/12/05 10:43:46;;;;;;;19.92;7.70;;;;;;;5.87;66.51;95211.84;5034365;28;20525;-87
2023/12/05 10:46:13;;;;;;;14.35;7.20;;;;;;;5.91;66.34;95212.97;5031129;28;20161;-87
2023/12/05 10:48:38;;;;;;;22.63;10.32;;;;;;;5.97;65.97;95190.16;4992793;28;20045;-85
2023/12/05 10:51:04;;;;;;;14.75;7.70;;;;;;;5.90;66.10;95166.63;5004147;28;20545;-85
2023/12/05 10:53:34;;;;;;;15.60;7.30;;;;;;;5.97;66.30;95198.84;5042734;28;20483;-85
2023/12/05 10:56:19;;;;;;;20.42;8.10;;;;;;;4.97;67.47;95057.78;5031490;28;20178;-86
2023/12/05 10:58:47;;;;;;;19.73;8.13;;;;;;;6.18;68.05;95226.22;5035204;28;20025;-85
2023/12/05 11:01:13;;;;;;;19.23;8.90;;;;;;;6.12;68.72;95222.72;5013161;28;20568;-86
2023/12/05 11:03:41;;;;;;;20.20;7.75;;;;;;;5.48;69.23;95136.59;5029694;28;20040;-85
2023/12/05 11:06:08;;;;;;;17.10;8.10;;;;;;;6.12;68.97;95232.47;5031665;28;20089;-86
2023/12/05 11:08:36;;;;;;;28.02;9.35;;;;;;;5.54;68.85;95152.19;5026913;28;20158;-86
2023/12/05 11:11:03;;;;;;;18.25;7.88;;;;;;;5.91;68.83;95199.03;5023851;28;20029;-85
2023/12/05 11:13:35;;;;;;;27.48;9.48;;;;;;;4.03;68.97;94925.59;5031139;28;20080;-86
2023/12/05 11:16:20;;;;;;;23.15;8.60;;;;;;;6.18;68.70;95221.75;5024980;28;20036;-86
2023/12/05 11:19:07;;;;;;;16.45;8.00;;;;;;;3.43;67.88;94794.28;5027806;28;20116;-86
2023/12/05 11:21:44;;;;;;;14.50;7.28;;;;;;;6.18;67.74;95213.03;5055412;28;20537;-86
2023/12/05 11:24:34;;;;;;;15.65;8.13;;;;;;;5.74;67.73;95165.59;5060707;22;20072;-79
2023/12/05 11:27:22;;;;;;;15.80;7.35;;;;;;;5.93;68.31;95184.59;5067550;28;20059;-78